Gulfport, MS

2:01 PM CST on February 14, 2016 (GMT -0600)
Gulfport-Biloxi Regional | | Change Station
CLOSE
Current Station
Airport
Location: Gulfport,
Elevation: 26 ft
Nearby Weather Stations

Elev 26 ft 30.41 °N, 89.07 °W | Updated 8 minutes ago

Overcast
Overcast
63 °F
Feels Like 63 °F
N
14
Wind Variable Wind from SE

Today
High -- | Low -- °F
--% Chance of Precip.
Yesterday
High -- | Low -- °F
Precip. -- in
Pressure 30.16 in
Visibility 10.0 miles
Clouds Overcast 3300 ft
Dew Point 50 °F
Humidity 63%
Rainfall 0.00 in
Snow Depth Not available.
6:37 AM 5:43 PM
Waxing Crescent, 45% visible
METAR KGPT 141953Z 14012KT 10SM OVC033 17/10 A3016 RMK AO2 SLP211 T01720100
Pressure 30.16 in
Visibility 10.0 miles
Clouds Overcast 3300 ft
Dew Point 50 °F
Humidity 63%
Rainfall 0.00 in
Snow Depth Not available.
6:37 AM 5:43 PM
Waxing Crescent, 45% visible
METAR KGPT 141953Z 14012KT 10SM OVC033 17/10 A3016 RMK AO2 SLP211 T01720100

10-Day Weather Forecast

Almanac

Astronomy

Feb. 14, 2016 Rise Set
Actual Time
Civil Twilight
Nautical Twilight
Astronomical Twilight
Moon
Length of Visible Light
Length of Day
Tomorrow will be .
, % of the Moon is Illuminated

Today's Extremes

State Highs State Lows

Community

WunderPhotos

Upload Photos

1,892,880 photos uploaded!

WunderBlog® & News

Nearby

Air Quality

  Air Quality AQ Index Pollutant
Not available.

Snow Depth

Station Depth Elevation

Earthquake Activity

City Distance Mag. Time & Date
Minimum magnitude displayed is 2.5.

Coastal Water Temperatures

Place Temperature

Stations

Nearby Weather Stations

Station Location Temp. Windchill Dew Point Humidity Wind Precip. Elev Updated Type
                   

Watches & Warnings

There are currently no watches in effect.